Time;durP1;ratioP1;P1;durP2;ratioP2;P2;SDS_P1;SDS_P2;PMS_P1;PMS_P2;Temp;Humidity;BMP_temperature;BMP_pressure;BME280_temperature;BME280_humidity;BME280_pressure;Samples;Min_cycle;Max_cycle;Signal;HPM_P1;HPM_P2
2021/10/24 00:00:59;;;;;;;16.88;12.23;;;8.00;99.90;;;;;;5013984;28;20038;-66
2021/10/24 00:03:25;;;;;;;17.88;12.15;;;8.00;99.90;;;;;;5014797;28;20045;-66
2021/10/24 00:05:51;;;;;;;19.45;13.25;;;8.00;99.90;;;;;;5018640;28;20148;-66
2021/10/24 00:08:17;;;;;;;19.33;14.05;;;7.90;99.90;;;;;;5016377;28;20037;-66
2021/10/24 00:10:43;;;;;;;20.63;14.13;;;7.90;99.90;;;;;;5010205;28;20195;-66
2021/10/24 00:13:08;;;;;;;17.25;14.05;;;7.80;99.90;;;;;;5016417;28;20041;-65
2021/10/24 00:15:34;;;;;;;21.02;14.38;;;7.80;99.90;;;;;;5016658;28;20079;-66
2021/10/24 00:18:00;;;;;;;21.00;14.65;;;7.80;99.90;;;;;;5015166;28;20462;-65
2021/10/24 00:20:25;;;;;;;18.52;14.57;;;7.80;99.90;;;;;;5013598;28;20044;-68
2021/10/24 00:22:51;;;;;;;22.35;14.55;;;7.70;99.90;;;;;;5016566;28;20179;-66
2021/10/24 00:25:17;;;;;;;19.75;14.13;;;7.70;99.90;;;;;;5017870;28;20041;-66
2021/10/24 00:27:43;;;;;;;19.00;13.85;;;7.70;99.90;;;;;;5012974;28;20042;-66
2021/10/24 00:30:09;;;;;;;21.10;13.50;;;7.80;99.90;;;;;;5017378;28;20160;-66
2021/10/24 00:32:35;;;;;;;20.00;14.65;;;7.70;99.90;;;;;;5014322;28;20533;-66
2021/10/24 00:35:00;;;;;;;17.73;14.00;;;7.70;99.90;;;;;;5017577;28;20139;-66
2021/10/24 00:37:26;;;;;;;19.27;14.63;;;7.70;99.90;;;;;;5020758;28;20530;-66
2021/10/24 00:39:52;;;;;;;18.98;14.13;;;7.70;99.90;;;;;;5025759;28;20046;-65
2021/10/24 00:42:18;;;;;;;20.17;14.00;;;7.60;99.90;;;;;;5020758;28;20460;-66
2021/10/24 00:44:44;;;;;;;24.17;14.98;;;7.60;99.90;;;;;;5027124;28;20427;-66
2021/10/24 00:47:10;;;;;;;19.92;14.57;;;7.50;99.90;;;;;;5018748;28;20120;-66
2021/10/24 00:49:36;;;;;;;18.88;14.02;;;7.50;99.90;;;;;;5031963;28;20052;-66
2021/10/24 00:52:02;;;;;;;18.52;14.18;;;7.40;99.90;;;;;;5015466;28;20053;-66
2021/10/24 00:54:29;;;;;;;15.85;13.25;;;7.40;99.90;;;;;;5016585;28;20060;-66
2021/10/24 00:56:56;;;;;;;19.48;14.13;;;7.40;99.90;;;;;;5018480;28;20203;-66
2021/10/24 00:59:23;;;;;;;20.17;13.75;;;7.30;99.90;;;;;;5020274;28;20096;-66
2021/10/24 01:01:50;;;;;;;19.90;13.60;;;7.30;99.90;;;;;;5021643;28;20095;-66
2021/10/24 01:04:16;;;;;;;16.33;13.43;;;7.20;99.90;;;;;;5019479;28;20033;-66
2021/10/24 01:06:43;;;;;;;19.63;13.18;;;7.20;99.90;;;;;;5016773;28;20424;-66
2021/10/24 01:09:18;;;;;;;17.70;13.50;;;7.20;99.90;;;;;;5014311;28;20049;-66
2021/10/24 01:11:45;;;;;;;16.27;12.38;;;7.20;99.90;;;;;;5035580;28;20116;-66
2021/10/24 01:14:11;;;;;;;21.00;13.40;;;7.10;99.90;;;;;;5015922;28;20112;-66
2021/10/24 01:16:40;;;;;;;17.08;12.85;;;7.10;99.90;;;;;;5020589;28;20434;-66
2021/10/24 01:19:08;;;;;;;18.17;13.40;;;7.10;99.90;;;;;;5016173;28;20474;-66
2021/10/24 01:21:34;;;;;;;15.90;12.23;;;7.20;99.90;;;;;;5019391;28;20045;-66
2021/10/24 01:24:00;;;;;;;18.52;13.13;;;7.10;99.90;;;;;;5016695;28;20068;-66
2021/10/24 01:26:28;;;;;;;17.00;13.93;;;7.00;99.90;;;;;;5016364;28;20053;-66
2021/10/24 01:28:54;;;;;;;17.95;13.77;;;7.00;99.90;;;;;;5014800;28;20073;-66
2021/10/24 01:31:20;;;;;;;18.00;14.00;;;6.90;99.90;;;;;;5020341;28;20041;-66
2021/10/24 01:33:45;;;;;;;17.92;13.40;;;6.90;99.90;;;;;;5017384;28;20044;-66
2021/10/24 01:36:11;;;;;;;18.42;13.38;;;6.80;99.90;;;;;;5017655;28;20040;-66
2021/10/24 01:38:42;;;;;;;17.88;13.80;;;6.80;99.90;;;;;;5013361;28;20512;-66
2021/10/24 01:41:09;;;;;;;21.67;13.90;;;6.70;99.90;;;;;;5016493;28;20041;-66
2021/10/24 01:43:35;;;;;;;16.42;13.73;;;6.70;99.90;;;;;;5010979;28;20045;-66
2021/10/24 01:46:01;;;;;;;21.08;14.02;;;6.60;99.90;;;;;;5023944;28;20045;-67
2021/10/24 01:48:27;;;;;;;18.77;13.63;;;6.50;99.90;;;;;;5020132;28;20049;-66
2021/10/24 01:50:54;;;;;;;19.95;13.65;;;6.50;99.90;;;;;;5017570;28;20038;-66
2021/10/24 01:53:23;;;;;;;18.13;13.32;;;6.50;99.90;;;;;;5017352;28;20161;-66
2021/10/24 01:55:49;;;;;;;19.27;14.07;;;6.40;99.90;;;;;;5012275;28;20096;-66
2021/10/24 01:58:15;;;;;;;20.38;14.63;;;6.30;99.90;;;;;;5017819;28;20037;-66
2021/10/24 02:00:42;;;;;;;20.13;13.52;;;6.30;99.90;;;;;;5012727;28;20068;-66
2021/10/24 02:03:09;;;;;;;20.60;14.50;;;6.30;99.90;;;;;;5019889;28;20385;-66
2021/10/24 02:05:35;;;;;;;23.35;13.93;;;6.20;99.90;;;;;;5011888;28;20080;-66
2021/10/24 02:08:01;;;;;;;19.70;15.18;;;6.20;99.90;;;;;;5018370;28;20041;-66
2021/10/24 02:10:27;;;;;;;20.92;15.27;;;6.20;99.90;;;;;;5008468;28;20048;-66
2021/10/24 02:12:52;;;;;;;21.15;14.40;;;6.10;99.90;;;;;;5017639;28;20057;-66
2021/10/24 02:15:18;;;;;;;20.10;14.23;;;6.10;99.90;;;;;;5014974;28;20029;-66
2021/10/24 02:17:44;;;;;;;25.50;16.05;;;6.10;99.90;;;;;;5018432;28;20098;-66
2021/10/24 02:20:10;;;;;;;26.20;15.60;;;6.10;99.90;;;;;;5010898;28;20502;-66
2021/10/24 02:22:37;;;;;;;22.92;14.82;;;6.00;99.90;;;;;;5021551;28;20165;-66
2021/10/24 02:25:04;;;;;;;20.10;14.82;;;6.00;99.90;;;;;;5023200;28;20041;-66
2021/10/24 02:27:30;;;;;;;23.85;15.55;;;6.00;99.90;;;;;;5013087;28;20037;-66
2021/10/24 02:29:56;;;;;;;28.73;16.17;;;6.00;99.90;;;;;;5019584;28;20055;-66
2021/10/24 02:32:22;;;;;;;26.38;15.13;;;6.00;99.90;;;;;;5015789;28;20091;-66
2021/10/24 02:34:48;;;;;;;25.60;15.80;;;6.00;99.90;;;;;;5022771;28;20041;-66
2021/10/24 02:37:14;;;;;;;17.65;14.18;;;6.00;99.90;;;;;;5009776;28;20034;-66
2021/10/24 02:39:39;;;;;;;22.35;16.60;;;5.90;99.90;;;;;;5018735;28;20188;-66
2021/10/24 02:42:06;;;;;;;22.90;16.17;;;5.90;99.90;;;;;;5011384;28;20128;-66
2021/10/24 02:44:32;;;;;;;25.33;16.55;;;5.90;99.90;;;;;;5031089;28;20498;-66
2021/10/24 02:46:58;;;;;;;25.73;17.83;;;5.90;99.90;;;;;;5013075;28;20571;-66
2021/10/24 02:49:25;;;;;;;28.02;16.95;;;5.80;99.90;;;;;;5018559;28;20121;-66
2021/10/24 02:51:52;;;;;;;27.27;18.75;;;5.80;99.90;;;;;;5018145;28;20346;-66
2021/10/24 02:54:18;;;;;;;27.25;19.73;;;5.80;99.90;;;;;;5021563;28;20052;-66
2021/10/24 02:56:45;;;;;;;28.25;19.75;;;5.80;99.90;;;;;;5019305;28;20033;-66
2021/10/24 02:59:11;;;;;;;31.20;19.85;;;5.80;99.90;;;;;;5017549;28;20169;-66
2021/10/24 03:01:37;;;;;;;33.90;20.33;;;5.80;99.90;;;;;;5009405;28;20099;-66
2021/10/24 03:04:03;;;;;;;27.67;19.77;;;5.70;99.90;;;;;;5024692;28;20066;-66
2021/10/24 03:06:30;;;;;;;29.40;19.23;;;5.70;99.90;;;;;;5015491;28;20057;-66
2021/10/24 03:08:56;;;;;;;27.27;19.52;;;5.70;99.90;;;;;;5018555;28;20147;-66
2021/10/24 03:11:22;;;;;;;24.45;17.58;;;5.60;99.90;;;;;;5012701;28;20415;-66
2021/10/24 03:13:48;;;;;;;25.88;17.85;;;5.70;99.90;;;;;;5015911;28;20505;-66
2021/10/24 03:16:14;;;;;;;27.90;18.00;;;5.60;99.90;;;;;;5039410;28;20046;-66
2021/10/24 03:18:39;;;;;;;22.60;17.02;;;5.60;99.90;;;;;;5015667;28;20120;-67
2021/10/24 03:21:05;;;;;;;23.00;17.40;;;5.60;99.90;;;;;;5014877;28;20120;-66
2021/10/24 03:23:31;;;;;;;22.92;16.98;;;5.50;99.90;;;;;;5013478;28;20042;-66
2021/10/24 03:25:57;;;;;;;26.02;17.20;;;5.60;99.90;;;;;;5019399;28;20076;-66
2021/10/24 03:28:23;;;;;;;23.73;15.80;;;5.50;99.90;;;;;;5010273;28;20077;-66
2021/10/24 03:30:49;;;;;;;24.45;16.92;;;5.50;99.90;;;;;;5014691;28;20486;-66
2021/10/24 03:33:16;;;;;;;25.02;15.88;;;5.50;99.90;;;;;;5027998;28;20649;-66
2021/10/24 03:35:42;;;;;;;21.02;15.52;;;5.40;99.90;;;;;;5017081;28;20034;-66
2021/10/24 03:38:08;;;;;;;23.63;16.30;;;5.40;99.90;;;;;;5008517;28;20048;-66
2021/10/24 03:40:33;;;;;;;21.08;15.57;;;5.40;99.90;;;;;;5015054;28;20292;-66
2021/10/24 03:42:59;;;;;;;20.92;15.13;;;5.30;99.90;;;;;;5015636;28;20076;-66
2021/10/24 03:45:25;;;;;;;23.05;15.75;;;5.40;99.90;;;;;;5013232;28;20037;-66
2021/10/24 03:47:50;;;;;;;25.48;16.27;;;5.40;99.90;;;;;;5015549;28;20187;-66
2021/10/24 03:50:16;;;;;;;23.98;15.70;;;5.40;99.90;;;;;;5009639;28;20073;-67
2021/10/24 03:52:42;;;;;;;20.42;15.32;;;5.30;99.90;;;;;;5021534;28;20053;-66
2021/10/24 03:55:12;;;;;;;20.60;14.13;;;5.30;99.90;;;;;;5019233;28;20183;-66
2021/10/24 03:57:41;;;;;;;25.98;15.55;;;5.20;99.90;;;;;;5022947;28;20046;-66
2021/10/24 04:00:09;;;;;;;20.38;14.95;;;5.30;99.90;;;;;;5022002;28;20505;-66
2021/10/24 04:02:57;;;;;;;24.00;13.88;;;5.20;99.90;;;;;;5025309;28;20048;-66
2021/10/24 04:05:24;;;;;;;25.35;15.85;;;5.20;99.90;;;;;;5020654;28;20041;-66
2021/10/24 04:07:51;;;;;;;22.00;15.50;;;5.20;99.90;;;;;;5027046;28;20513;-66
2021/10/24 04:10:19;;;;;;;23.25;14.23;;;5.20;99.90;;;;;;5018087;28;20053;-66
2021/10/24 04:12:45;;;;;;;20.27;15.27;;;5.20;99.90;;;;;;5022922;28;20489;-66
2021/10/24 04:15:12;;;;;;;23.13;15.82;;;5.10;99.90;;;;;;5014295;28;20112;-66
2021/10/24 04:17:38;;;;;;;22.85;14.70;;;5.10;99.90;;;;;;5028065;28;20041;-66
2021/10/24 04:20:09;;;;;;;21.08;14.75;;;5.10;99.90;;;;;;5019003;28;20045;-66
2021/10/24 04:22:37;;;;;;;19.60;14.98;;;5.10;99.90;;;;;;5016858;28;20045;-66
2021/10/24 04:25:04;;;;;;;18.27;14.85;;;5.10;99.90;;;;;;5012582;28;20080;-66
2021/10/24 04:27:30;;;;;;;26.15;15.63;;;5.10;99.90;;;;;;5027742;28;20053;-66
2021/10/24 04:29:55;;;;;;;21.02;14.65;;;5.10;99.90;;;;;;5026891;28;20075;-66
2021/10/24 04:32:21;;;;;;;22.73;15.48;;;5.10;99.90;;;;;;5017578;28;20343;-66
2021/10/24 04:34:47;;;;;;;19.55;14.88;;;5.10;99.90;;;;;;5019550;28;20033;-66
2021/10/24 04:37:13;;;;;;;21.92;15.45;;;5.00;99.90;;;;;;5015410;28;20469;-66
2021/10/24 04:39:38;;;;;;;19.85;15.02;;;5.00;99.90;;;;;;5017130;28;20443;-66
2021/10/24 04:42:05;;;;;;;20.92;15.35;;;5.00;99.90;;;;;;5015156;28;20037;-66
2021/10/24 04:44:30;;;;;;;22.77;15.35;;;5.00;99.90;;;;;;5027759;28;20398;-66
2021/10/24 04:46:57;;;;;;;23.17;15.55;;;5.00;99.90;;;;;;5015284;28;20076;-66
2021/10/24 04:49:22;;;;;;;25.27;15.52;;;5.00;99.90;;;;;;5020881;28;20072;-66
2021/10/24 04:51:48;;;;;;;22.58;14.90;;;4.90;99.90;;;;;;5020875;28;20092;-66
2021/10/24 04:54:14;;;;;;;26.33;15.65;;;4.90;99.90;;;;;;5028101;28;20041;-66
2021/10/24 04:56:40;;;;;;;22.42;15.52;;;4.90;99.90;;;;;;5017772;28;20044;-66
2021/10/24 04:59:05;;;;;;;21.85;14.63;;;4.90;99.90;;;;;;5016300;28;20041;-66
2021/10/24 05:01:31;;;;;;;18.83;14.93;;;4.90;99.90;;;;;;5018555;28;20121;-66
2021/10/24 05:03:57;;;;;;;22.73;15.80;;;4.90;99.90;;;;;;5025449;28;20046;-66
2021/10/24 05:06:23;;;;;;;22.30;14.95;;;4.90;99.90;;;;;;5020679;28;20040;-66
2021/10/24 05:08:48;;;;;;;21.83;15.45;;;4.80;99.90;;;;;;4990544;28;20156;-66
2021/10/24 05:11:14;;;;;;;24.15;16.20;;;4.80;99.90;;;;;;5015279;28;20832;-66
2021/10/24 05:13:41;;;;;;;27.20;15.98;;;4.80;99.90;;;;;;5015835;28;20042;-66
2021/10/24 05:16:07;;;;;;;23.63;15.80;;;4.80;99.90;;;;;;5020508;28;20105;-66
2021/10/24 05:18:33;;;;;;;22.13;15.13;;;4.80;99.90;;;;;;4999492;28;20185;-66
2021/10/24 05:20:58;;;;;;;22.20;15.40;;;4.80;99.90;;;;;;5027481;28;20058;-66
2021/10/24 05:23:24;;;;;;;25.65;16.10;;;4.70;99.90;;;;;;5021232;28;20069;-66
2021/10/24 05:25:50;;;;;;;22.73;15.05;;;4.70;99.90;;;;;;5022957;28;20176;-66
2021/10/24 05:28:16;;;;;;;23.98;15.18;;;4.70;99.90;;;;;;5010541;28;20037;-66
2021/10/24 05:30:42;;;;;;;22.65;15.15;;;4.70;99.90;;;;;;5023001;28;20457;-66
2021/10/24 05:33:08;;;;;;;22.60;15.25;;;4.70;99.90;;;;;;5017935;28;20045;-66
2021/10/24 05:35:34;;;;;;;21.48;15.48;;;4.70;99.90;;;;;;5025399;28;20034;-66
2021/10/24 05:38:00;;;;;;;24.38;15.75;;;4.70;99.90;;;;;;5011133;28;20034;-66
2021/10/24 05:40:25;;;;;;;22.40;15.15;;;4.70;99.90;;;;;;5018495;28;20654;-66
2021/10/24 05:42:51;;;;;;;22.27;15.07;;;4.60;99.90;;;;;;5016055;28;20037;-67
2021/10/24 05:45:17;;;;;;;24.60;16.02;;;4.60;99.90;;;;;;5020292;28;20045;-66
2021/10/24 05:47:43;;;;;;;25.23;15.35;;;4.60;99.90;;;;;;5024625;28;20483;-66
2021/10/24 05:50:09;;;;;;;22.08;15.23;;;4.60;99.90;;;;;;5013777;28;20077;-66
2021/10/24 05:52:34;;;;;;;19.55;15.43;;;4.60;99.90;;;;;;5023386;28;20169;-66
2021/10/24 05:55:00;;;;;;;23.48;16.80;;;4.60;99.90;;;;;;5014960;28;20089;-66
2021/10/24 05:57:26;;;;;;;26.55;16.23;;;4.60;99.90;;;;;;5014921;28;20438;-66
2021/10/24 05:59:51;;;;;;;22.52;15.98;;;4.60;99.90;;;;;;5014240;28;20387;-66
2021/10/24 06:02:17;;;;;;;27.55;15.50;;;4.60;99.90;;;;;;5020697;28;20593;-66
2021/10/24 06:04:43;;;;;;;22.35;16.00;;;4.60;99.90;;;;;;5009778;28;20041;-66
2021/10/24 06:07:09;;;;;;;23.40;16.20;;;4.50;99.90;;;;;;5018201;28;20038;-66
2021/10/24 06:09:54;;;;;;;24.73;15.77;;;4.60;99.90;;;;;;5013395;28;20038;-66
2021/10/24 06:12:42;;;;;;;19.70;15.02;;;4.60;99.90;;;;;;5015950;28;20061;-66
2021/10/24 06:15:11;;;;;;;21.13;15.07;;;4.50;99.90;;;;;;5020386;28;20044;-66
2021/10/24 06:17:37;;;;;;;22.88;15.85;;;4.50;99.90;;;;;;5015855;28;20180;-66
2021/10/24 06:20:05;;;;;;;24.50;15.90;;;4.50;99.90;;;;;;5013872;28;20535;-66
2021/10/24 06:22:30;;;;;;;20.88;15.80;;;4.50;99.90;;;;;;5018165;28;20044;-66
2021/10/24 06:24:56;;;;;;;24.92;15.73;;;4.40;99.90;;;;;;5018610;28;20067;-66
2021/10/24 06:27:22;;;;;;;24.42;16.13;;;4.40;99.90;;;;;;5016518;28;20567;-66
2021/10/24 06:29:47;;;;;;;24.10;16.95;;;4.40;99.90;;;;;;5015052;28;20076;-66
2021/10/24 06:32:13;;;;;;;25.30;16.63;;;4.40;99.90;;;;;;5015760;28;20034;-66
2021/10/24 06:34:39;;;;;;;24.98;15.82;;;4.40;99.90;;;;;;5016903;28;20474;-66
2021/10/24 06:37:05;;;;;;;26.25;15.98;;;4.40;99.90;;;;;;5019739;28;20449;-66
2021/10/24 06:39:30;;;;;;;21.48;15.68;;;4.50;99.90;;;;;;5022540;28;20390;-67
2021/10/24 06:41:56;;;;;;;22.13;16.92;;;4.40;99.90;;;;;;5015750;28;20099;-67
2021/10/24 06:44:22;;;;;;;23.88;16.65;;;4.50;99.90;;;;;;5015735;28;20405;-67
2021/10/24 06:46:48;;;;;;;27.52;16.50;;;4.50;99.90;;;;;;5012152;28;20052;-67
2021/10/24 06:49:13;;;;;;;24.88;16.88;;;4.50;99.90;;;;;;5023381;28;20042;-67
2021/10/24 06:51:39;;;;;;;21.65;15.95;;;4.60;99.90;;;;;;5013164;28;20252;-67
2021/10/24 06:54:05;;;;;;;25.73;15.40;;;4.60;99.90;;;;;;5018458;28;20100;-66
2021/10/24 06:56:30;;;;;;;23.25;16.10;;;4.60;99.90;;;;;;5013684;28;20493;-67
2021/10/24 06:58:56;;;;;;;27.30;16.15;;;4.60;99.90;;;;;;5021961;28;20046;-67
2021/10/24 07:01:22;;;;;;;26.58;15.98;;;4.60;99.90;;;;;;5018711;28;20033;-67
2021/10/24 07:03:48;;;;;;;22.77;15.45;;;4.70;99.90;;;;;;5021929;28;20072;-67
2021/10/24 07:06:13;;;;;;;25.40;16.27;;;4.70;99.90;;;;;;5018000;28;20109;-67
2021/10/24 07:08:39;;;;;;;22.63;15.25;;;4.90;99.90;;;;;;5015641;28;20046;-67
2021/10/24 07:11:05;;;;;;;23.05;15.70;;;5.20;99.90;;;;;;5020284;28;20121;-67
2021/10/24 07:13:31;;;;;;;25.90;16.17;;;5.40;99.90;;;;;;5015069;28;20041;-67
2021/10/24 07:15:57;;;;;;;24.83;16.02;;;5.60;99.90;;;;;;5024176;28;20087;-67
2021/10/24 07:18:23;;;;;;;23.33;15.48;;;5.90;99.90;;;;;;5012222;28;20064;-67
2021/10/24 07:20:48;;;;;;;20.98;14.30;;;6.30;99.90;;;;;;5021916;28;20045;-67
2021/10/24 07:23:14;;;;;;;17.48;12.93;;;6.90;99.90;;;;;;5011325;28;20069;-67
2021/10/24 07:25:40;;;;;;;19.15;13.52;;;7.80;99.90;;;;;;5018924;28;20445;-67
2021/10/24 07:28:06;;;;;;;17.98;13.38;;;8.50;99.90;;;;;;5012652;28;20125;-67
2021/10/24 07:30:32;;;;;;;15.55;12.23;;;9.10;99.90;;;;;;5015795;28;20045;-67
2021/10/24 07:32:58;;;;;;;15.85;11.45;;;9.20;99.90;;;;;;5012193;28;20038;-67
2021/10/24 07:35:24;;;;;;;15.48;11.30;;;9.10;99.90;;;;;;5012948;28;20084;-67
2021/10/24 07:37:50;;;;;;;17.17;11.23;;;9.00;99.90;;;;;;5015607;28;20061;-67
2021/10/24 07:40:18;;;;;;;16.45;12.10;;;9.40;99.90;;;;;;5018423;28;20421;-67
2021/10/24 07:42:44;;;;;;;17.65;11.82;;;10.00;99.90;;;;;;5010415;28;20067;-67
2021/10/24 07:45:10;;;;;;;14.35;10.60;;;10.80;99.90;;;;;;5015976;28;20132;-67
2021/10/24 07:47:37;;;;;;;15.65;10.82;;;11.40;99.90;;;;;;5019254;28;20042;-67
2021/10/24 07:50:06;;;;;;;11.75;9.88;;;12.00;99.90;;;;;;5014181;28;20500;-67
2021/10/24 07:52:33;;;;;;;13.68;10.15;;;12.10;99.90;;;;;;5018151;28;20092;-67
2021/10/24 07:54:59;;;;;;;17.75;10.93;;;12.00;99.90;;;;;;5011048;28;20034;-67
2021/10/24 07:57:25;;;;;;;13.68;10.10;;;11.70;99.90;;;;;;5020644;28;20509;-67
2021/10/24 07:59:50;;;;;;;13.25;9.50;;;11.80;99.90;;;;;;5014494;28;20581;-67
2021/10/24 08:02:18;;;;;;;13.60;10.02;;;12.00;99.90;;;;;;5015075;28;20116;-67
2021/10/24 08:04:48;;;;;;;12.55;9.65;;;12.30;99.90;;;;;;5009613;28;20041;-67
2021/10/24 08:07:14;;;;;;;14.65;10.15;;;12.60;99.90;;;;;;5018568;28;20034;-67
2021/10/24 08:09:41;;;;;;;11.93;9.52;;;12.70;99.90;;;;;;5010487;28;20146;-67
2021/10/24 08:12:07;;;;;;;13.60;10.35;;;12.80;99.90;;;;;;5015901;28;20053;-67
2021/10/24 08:14:33;;;;;;;12.30;9.70;;;12.90;99.90;;;;;;5012635;28;20038;-67
2021/10/24 08:17:00;;;;;;;12.80;9.40;;;13.00;99.90;;;;;;5022146;28;20474;-67
2021/10/24 08:19:27;;;;;;;13.50;9.77;;;13.10;99.90;;;;;;5010807;28;20493;-67
2021/10/24 08:21:53;;;;;;;13.00;9.27;;;13.20;99.90;;;;;;5016160;28;20231;-67
2021/10/24 08:24:19;;;;;;;14.18;8.88;;;13.20;99.90;;;;;;5009510;28;20046;-67
2021/10/24 08:26:45;;;;;;;12.63;8.75;;;13.20;99.90;;;;;;5014714;28;20045;-67
2021/10/24 08:29:11;;;;;;;10.25;8.13;;;13.40;99.90;;;;;;5025146;28;20049;-67
2021/10/24 08:31:38;;;;;;;14.45;8.43;;;13.60;99.90;;;;;;5011143;28;20068;-67
2021/10/24 08:34:05;;;;;;;11.02;8.38;;;13.70;99.90;;;;;;5018800;28;20049;-67
2021/10/24 08:36:31;;;;;;;13.43;9.77;;;13.80;99.90;;;;;;5009759;28;20048;-67
2021/10/24 08:39:00;;;;;;;12.30;8.95;;;14.10;99.90;;;;;;5015948;28;20052;-67
2021/10/24 08:41:28;;;;;;;11.77;8.77;;;14.30;98.80;;;;;;5009132;28;20042;-67
2021/10/24 08:43:55;;;;;;;13.10;8.57;;;14.50;98.70;;;;;;5015850;28;20449;-67
2021/10/24 08:46:21;;;;;;;10.68;7.97;;;14.70;97.20;;;;;;5017625;28;20099;-67
2021/10/24 08:48:47;;;;;;;9.73;7.47;;;14.80;96.50;;;;;;5018507;28;20030;-67
2021/10/24 08:51:17;;;;;;;10.38;7.57;;;14.90;94.40;;;;;;5014144;28;20041;-67
2021/10/24 08:53:47;;;;;;;10.02;8.20;;;15.10;93.70;;;;;;5019395;28;20041;-67
2021/10/24 08:56:21;;;;;;;12.23;8.25;;;15.10;92.60;;;;;;5012134;28;20056;-67
2021/10/24 08:58:48;;;;;;;9.02;7.63;;;15.30;91.90;;;;;;5019281;28;20042;-67
2021/10/24 09:01:14;;;;;;;9.82;7.57;;;15.40;90.80;;;;;;5016261;28;20044;-67
2021/10/24 09:04:08;;;;;;;12.10;7.38;;;15.50;91.60;;;;;;5023776;28;20077;-67
2021/10/24 09:06:57;;;;;;;11.95;9.65;;;15.70;87.80;;;;;;5021271;28;20041;-68
2021/10/24 09:09:27;;;;;;;13.15;7.80;;;15.90;89.40;;;;;;5020812;28;20048;-67
2021/10/24 09:12:06;;;;;;;9.80;7.50;;;16.10;90.20;;;;;;5019047;28;20155;-68
2021/10/24 09:14:55;;;;;;;10.85;7.65;;;16.20;84.40;;;;;;5018333;28;20042;-67
2021/10/24 09:17:26;;;;;;;11.13;7.35;;;16.50;83.30;;;;;;5020635;28;20037;-67
2021/10/24 09:19:56;;;;;;;11.18;7.35;;;16.70;83.20;;;;;;5015634;28;20112;-67
2021/10/24 09:22:26;;;;;;;8.20;7.00;;;16.90;80.50;;;;;;5012749;28;20394;-67
2021/10/24 09:25:01;;;;;;;12.05;7.13;;;17.20;79.00;;;;;;5024208;28;20045;-67
2021/10/24 09:27:40;;;;;;;12.93;7.13;;;17.30;76.90;;;;;;5019245;28;20111;-67
2021/10/24 09:30:12;;;;;;;9.85;6.95;;;17.40;76.50;;;;;;5026565;28;20563;-67
2021/10/24 09:32:49;;;;;;;9.57;6.95;;;17.60;75.90;;;;;;5010275;28;20045;-67
2021/10/24 09:35:16;;;;;;;9.30;6.82;;;17.70;74.40;;;;;;5024778;28;20052;-67
2021/10/24 09:37:49;;;;;;;10.38;6.65;;;17.80;74.40;;;;;;5020485;28;20034;-68
2021/10/24 09:40:24;;;;;;;8.80;7.00;;;18.00;72.20;;;;;;5021750;28;20349;-68
2021/10/24 09:43:25;;;;;;;10.35;6.57;;;18.20;73.80;;;;;;5019565;28;20030;-67
2021/10/24 09:46:13;;;;;;;9.60;6.55;;;18.30;70.50;;;;;;5011756;28;20232;-67
2021/10/24 09:48:44;;;;;;;10.00;7.28;;;18.40;68.00;;;;;;5013501;28;20111;-67
2021/10/24 09:51:12;;;;;;;11.13;7.00;;;18.50;73.20;;;;;;5019784;28;20041;-67
2021/10/24 09:53:43;;;;;;;8.25;6.57;;;18.60;70.30;;;;;;5018751;28;20038;-68
2021/10/24 09:56:15;;;;;;;10.90;6.65;;;18.70;69.60;;;;;;5020626;28;20493;-68
2021/10/24 09:58:44;;;;;;;9.65;6.35;;;18.80;68.60;;;;;;5011676;28;20096;-68
2021/10/24 10:01:13;;;;;;;9.27;6.68;;;18.70;67.20;;;;;;5016779;28;20057;-68
2021/10/24 10:03:43;;;;;;;9.70;6.55;;;18.40;68.30;;;;;;5014415;28;20038;-68
2021/10/24 10:06:09;;;;;;;8.93;6.40;;;17.90;67.10;;;;;;5025537;28;20045;-68
2021/10/24 10:08:39;;;;;;;7.78;6.97;;;17.20;68.80;;;;;;5013893;28;20044;-68
2021/10/24 10:11:28;;;;;;;8.35;6.78;;;16.80;70.80;;;;;;5023879;28;20115;-67
2021/10/24 10:14:08;;;;;;;10.55;6.78;;;16.30;68.80;;;;;;5013095;28;20502;-68
2021/10/24 10:16:37;;;;;;;7.68;6.00;;;16.10;70.60;;;;;;5015850;28;20046;-68
2021/10/24 10:19:05;;;;;;;10.35;6.60;;;16.30;71.20;;;;;;5011452;28;20051;-67
2021/10/24 10:21:37;;;;;;;9.68;6.45;;;16.70;70.90;;;;;;5017408;28;20179;-67
2021/10/24 10:24:05;;;;;;;10.43;5.88;;;17.20;70.10;;;;;;5019182;28;20072;-67
2021/10/24 10:26:42;;;;;;;7.05;6.28;;;17.50;69.60;;;;;;5016051;28;20176;-67
2021/10/24 10:29:13;;;;;;;8.82;5.60;;;17.50;67.90;;;;;;5015269;28;20041;-67
2021/10/24 10:31:41;;;;;;;10.65;5.80;;;17.40;67.80;;;;;;5016247;28;20251;-67
2021/10/24 10:34:11;;;;;;;8.88;5.43;;;17.20;68.80;;;;;;5013460;28;20037;-67
2021/10/24 10:36:49;;;;;;;10.27;5.97;;;17.40;68.30;;;;;;5015261;28;20417;-68
2021/10/24 10:39:35;;;;;;;7.97;5.18;;;17.90;68.10;;;;;;5014933;28;20034;-68
2021/10/24 10:42:22;;;;;;;7.93;5.70;;;18.70;64.30;;;;;;5017949;28;20121;-68
2021/10/24 10:45:24;;;;;;;12.95;5.68;;;19.20;64.00;;;;;;5005426;28;20135;-67
2021/10/24 10:47:57;;;;;;;5.50;4.95;;;19.60;60.20;;;;;;4983272;28;20042;-67
2021/10/24 10:50:39;;;;;;;6.68;5.03;;;19.90;61.00;;;;;;5008070;28;20041;-67
2021/10/24 10:53:07;;;;;;;7.20;5.07;;;20.10;60.50;;;;;;5025053;28;20099;-68
2021/10/24 10:56:01;;;;;;;9.35;5.95;;;20.50;61.00;;;;;;5019219;28;20045;-68
2021/10/24 10:58:28;;;;;;;8.80;5.88;;;20.90;56.70;;;;;;5016279;28;20099;-68
2021/10/24 11:00:58;;;;;;;8.35;5.38;;;20.90;57.70;;;;;;5015341;28;20120;-68
2021/10/24 11:03:49;;;;;;;7.20;5.32;;;20.90;57.70;;;;;;5017703;28;20037;-68
2021/10/24 11:06:24;;;;;;;7.65;5.45;;;20.80;55.10;;;;;;5015336;28;20069;-68
2021/10/24 11:09:10;;;;;;;6.47;5.18;;;20.80;55.40;;;;;;5020092;28;20052;-68
2021/10/24 11:11:40;;;;;;;9.45;5.43;;;20.80;54.90;;;;;;5010906;28;20095;-68
2021/10/24 11:14:12;;;;;;;7.50;4.68;;;20.70;57.00;;;;;;5013850;28;20049;-68
2021/10/24 11:16:46;;;;;;;6.40;4.75;;;20.70;55.20;;;;;;5007438;28;20045;-68
2021/10/24 11:22:04;;;;;;;7.18;4.82;;;20.50;53.40;;;;;;5017063;28;20049;-68
2021/10/24 11:24:50;;;;;;;5.95;4.05;;;20.30;53.60;;;;;;5015835;28;20045;-69
2021/10/24 11:27:19;;;;;;;6.30;4.13;;;20.20;54.60;;;;;;5013739;28;20065;-68
2021/10/24 11:29:49;;;;;;;6.10;4.13;;;20.10;55.90;;;;;;5019222;28;20084;-68
2021/10/24 11:32:27;;;;;;;7.88;4.60;;;20.10;55.10;;;;;;5013171;28;20424;-68
2021/10/24 11:35:16;;;;;;;8.00;4.68;;;19.90;55.40;;;;;;5023868;28;20367;-68
2021/10/24 11:37:48;;;;;;;6.82;4.65;;;19.20;56.50;;;;;;5010109;28;20432;-68
2021/10/24 11:40:32;;;;;;;6.95;4.70;;;18.00;59.20;;;;;;5016257;28;20080;-68
2021/10/24 11:43:14;;;;;;;6.10;4.17;;;16.90;61.10;;;;;;5012183;28;20112;-68
2021/10/24 11:46:01;;;;;;;7.43;4.97;;;16.00;63.80;;;;;;5023582;28;20312;-67
2021/10/24 11:48:31;;;;;;;6.13;4.10;;;15.40;65.00;;;;;;5015153;28;20048;-67
2021/10/24 11:51:08;;;;;;;9.35;4.90;;;14.90;67.60;;;;;;5015556;28;20109;-67
2021/10/24 11:53:37;;;;;;;6.07;4.43;;;14.60;67.80;;;;;;5012560;28;20042;-67
2021/10/24 11:56:24;;;;;;;8.27;5.13;;;14.10;67.70;;;;;;5021512;28;20054;-67
2021/10/24 12:01:28;;;;;;;7.70;5.22;;;13.60;69.90;;;;;;5015847;28;20103;-67
2021/10/24 12:03:58;;;;;;;8.15;4.88;;;13.30;70.90;;;;;;5011365;28;20495;-67
2021/10/24 12:06:45;;;;;;;8.45;5.68;;;13.10;72.10;;;;;;5025026;28;20049;-67
2021/10/24 12:09:14;;;;;;;7.55;5.70;;;12.90;72.40;;;;;;5012098;28;20107;-67
2021/10/24 12:11:42;;;;;;;8.32;5.75;;;12.80;74.30;;;;;;5017863;28;20034;-66
2021/10/24 12:14:12;;;;;;;8.85;5.57;;;12.70;74.60;;;;;;5007214;28;20125;-66
2021/10/24 12:16:40;;;;;;;8.48;5.88;;;12.60;75.60;;;;;;5013410;28;20085;-66
2021/10/24 12:19:17;;;;;;;7.20;5.43;;;12.50;75.80;;;;;;5014359;28;20558;-66
2021/10/24 12:22:04;;;;;;;8.65;6.05;;;12.50;75.60;;;;;;5022122;28;20029;-66
2021/10/24 12:24:50;;;;;;;8.10;5.93;;;12.40;76.90;;;;;;5017412;28;20052;-67
2021/10/24 12:27:18;;;;;;;8.38;5.72;;;12.30;76.80;;;;;;5016700;28;20482;-67
2021/10/24 12:30:07;;;;;;;9.15;5.35;;;12.20;77.80;;;;;;5011891;28;20045;-66
2021/10/24 12:32:33;;;;;;;8.43;5.93;;;12.20;78.10;;;;;;5020677;28;20057;-66
2021/10/24 12:35:05;;;;;;;9.63;5.63;;;12.20;78.90;;;;;;5017636;28;20046;-66
2021/10/24 12:37:32;;;;;;;7.03;5.70;;;12.10;80.00;;;;;;5026742;28;20128;-66
2021/10/24 12:40:27;;;;;;;10.60;5.65;;;12.10;80.20;;;;;;5015698;28;20042;-66
2021/10/24 12:43:13;;;;;;;8.35;4.93;;;12.10;79.80;;;;;;5023623;28;20513;-66
2021/10/24 12:45:45;;;;;;;9.25;4.93;;;12.00;80.10;;;;;;5015302;28;20041;-67
2021/10/24 12:48:11;;;;;;;7.65;5.35;;;12.00;80.00;;;;;;5018759;28;20103;-66
2021/10/24 12:50:38;;;;;;;8.85;5.20;;;12.00;80.40;;;;;;5016260;28;20084;-66
2021/10/24 12:53:09;;;;;;;9.07;5.45;;;11.90;80.90;;;;;;5024180;28;20050;-67